Time;durP1;ratioP1;P1;durP2;ratioP2;P2;SDS_P1;SDS_P2;PMS_P1;PMS_P2;Temp;Humidity;BMP_temperature;BMP_pressure;BME280_temperature;BME280_humidity;BME280_pressure;Samples;Min_cycle;Max_cycle;Signal;HPM_P1;HPM_P2
2022/11/21 00:04:30;;;;;;;164.17;78.53;;;0.90;99.90;;;;;;10438744;28;20040;-79
2022/11/21 00:09:32;;;;;;;176.13;83.33;;;0.90;99.90;;;;;;10438733;28;20056;-78
2022/11/21 00:14:33;;;;;;;226.17;102.20;;;0.90;99.90;;;;;;10440747;28;20032;-78
2022/11/21 00:19:34;;;;;;;215.97;96.80;;;0.90;99.90;;;;;;10438635;28;20033;-78
2022/11/21 00:24:34;;;;;;;224.70;98.20;;;0.90;99.90;;;;;;10438985;28;20426;-80
2022/11/21 00:29:35;;;;;;;174.93;77.70;;;0.90;99.90;;;;;;10438185;28;20037;-79
2022/11/21 00:34:35;;;;;;;161.17;76.47;;;0.90;99.90;;;;;;10443703;28;20137;-80
2022/11/21 00:39:36;;;;;;;173.87;83.77;;;0.80;99.90;;;;;;10445526;28;20286;-78
2022/11/21 00:44:36;;;;;;;210.23;98.97;;;0.80;99.90;;;;;;10439653;28;20049;-78
2022/11/21 00:49:37;;;;;;;207.67;96.93;;;0.80;99.90;;;;;;10439168;28;20045;-78
2022/11/21 00:54:37;;;;;;;193.97;92.90;;;0.80;99.90;;;;;;10435996;28;20559;-78
2022/11/21 00:59:38;;;;;;;181.37;86.57;;;0.90;99.90;;;;;;10440521;28;20021;-78
2022/11/21 01:04:38;;;;;;;180.20;82.70;;;0.90;99.90;;;;;;10445269;28;20556;-78
2022/11/21 01:09:39;;;;;;;193.23;89.37;;;0.90;99.90;;;;;;10444838;28;20033;-79
2022/11/21 01:14:39;;;;;;;189.77;92.37;;;0.90;99.90;;;;;;10444933;28;20039;-78
2022/11/21 01:19:40;;;;;;;198.70;94.87;;;0.90;99.90;;;;;;10444991;28;20032;-78
2022/11/21 01:24:40;;;;;;;205.33;97.07;;;0.90;99.90;;;;;;10444447;28;20021;-79
2022/11/21 01:29:41;;;;;;;200.17;97.20;;;0.90;99.90;;;;;;10445090;28;20131;-78
2022/11/21 01:34:42;;;;;;;184.33;83.57;;;0.90;99.90;;;;;;10444244;28;20409;-81
2022/11/21 01:39:42;;;;;;;186.53;87.00;;;1.00;99.90;;;;;;10442486;28;20057;-79
2022/11/21 01:44:49;;;;;;;177.03;88.43;;;1.00;99.90;;;;;;10444017;28;20060;-81
2022/11/21 01:49:52;;;;;;;197.37;91.03;;;1.00;99.90;;;;;;10440894;28;20099;-78
2022/11/21 01:55:00;;;;;;;203.93;86.80;;;1.00;99.90;;;;;;10442704;28;20140;-80
2022/11/21 02:00:10;;;;;;;198.20;89.00;;;1.00;99.90;;;;;;10444083;28;20021;-81
2022/11/21 02:05:16;;;;;;;180.53;80.40;;;1.00;99.90;;;;;;10432173;28;20144;-79
2022/11/21 02:10:17;;;;;;;188.13;88.82;;;1.00;99.90;;;;;;10438774;28;20045;-81
2022/11/21 02:15:20;;;;;;;206.53;90.60;;;1.00;99.90;;;;;;10443506;28;20500;-78
2022/11/21 02:20:24;;;;;;;174.60;82.27;;;0.80;99.90;;;;;;10440711;28;20095;-79
2022/11/21 02:25:29;;;;;;;177.37;74.93;;;0.70;99.90;;;;;;10443394;28;20438;-80
2022/11/21 02:30:31;;;;;;;131.13;57.25;;;0.50;99.90;;;;;;10445494;28;20037;-78
2022/11/21 02:35:35;;;;;;;147.27;66.23;;;0.50;99.90;;;;;;10442162;28;20029;-78
2022/11/21 02:40:41;;;;;;;165.00;69.07;;;0.50;99.90;;;;;;10442430;28;20036;-81
2022/11/21 02:45:44;;;;;;;162.85;69.35;;;0.50;99.90;;;;;;10448641;28;20057;-81
2022/11/21 02:50:46;;;;;;;157.53;64.17;;;0.40;99.90;;;;;;10443704;28;20037;-79
2022/11/21 02:55:46;;;;;;;147.80;58.33;;;0.50;99.90;;;;;;10445385;28;20697;-79
2022/11/21 03:00:47;;;;;;;155.80;63.63;;;0.50;99.90;;;;;;10441294;28;20033;-78
2022/11/21 03:05:48;;;;;;;129.77;54.83;;;0.40;99.90;;;;;;10441304;28;20067;-79
2022/11/21 03:10:48;;;;;;;125.63;52.23;;;0.30;99.90;;;;;;10443105;28;20395;-81
2022/11/21 03:15:49;;;;;;;115.53;51.73;;;0.10;99.90;;;;;;10441424;28;20597;-78
2022/11/21 03:20:49;;;;;;;125.83;52.30;;;-0.10;99.90;;;;;;10444497;28;20036;-78
2022/11/21 03:25:50;;;;;;;120.50;51.53;;;-0.30;99.90;;;;;;10440687;28;20790;-78
2022/11/21 03:30:50;;;;;;;114.87;46.87;;;-0.40;99.90;;;;;;10439040;28;20433;-78
2022/11/21 03:35:51;;;;;;;110.27;46.07;;;-0.60;99.90;;;;;;10424258;28;20082;-79
2022/11/21 03:40:51;;;;;;;140.43;55.13;;;-0.70;99.90;;;;;;10439965;28;20032;-78
2022/11/21 03:45:52;;;;;;;120.10;52.80;;;-0.80;99.90;;;;;;10440269;28;20048;-80
2022/11/21 03:50:52;;;;;;;144.77;62.73;;;-0.90;99.90;;;;;;10441577;28;20037;-79
2022/11/21 03:55:53;;;;;;;123.70;57.53;;;-0.90;99.90;;;;;;10423224;28;20791;-80
2022/11/21 04:00:53;;;;;;;142.30;57.77;;;-1.00;99.90;;;;;;10441741;28;20029;-78
2022/11/21 04:05:54;;;;;;;135.50;59.00;;;-1.10;99.90;;;;;;10435226;28;20527;-79
2022/11/21 04:10:55;;;;;;;147.70;65.10;;;-1.20;99.90;;;;;;10438531;28;20037;-79
2022/11/21 04:15:55;;;;;;;157.80;63.00;;;-1.30;99.90;;;;;;10433124;28;20037;-78
2022/11/21 04:20:57;;;;;;;149.93;64.50;;;-1.40;99.90;;;;;;10437101;28;20616;-79
2022/11/21 04:25:57;;;;;;;157.67;64.80;;;-1.50;99.90;;;;;;10446246;28;20033;-79
2022/11/21 04:31:03;;;;;;;228.73;98.73;;;-1.50;99.90;;;;;;10440264;28;20248;-80
2022/11/21 04:36:04;;;;;;;220.98;99.60;;;-1.60;99.90;;;;;;10447708;28;20017;-79
2022/11/21 04:41:04;;;;;;;181.20;79.07;;;-1.60;99.90;;;;;;10450256;28;20615;-79
2022/11/21 04:46:05;;;;;;;186.60;76.37;;;-1.50;99.90;;;;;;10451204;28;20070;-77
2022/11/21 04:51:05;;;;;;;180.70;78.60;;;-1.40;99.90;;;;;;10448605;28;20041;-78
2022/11/21 04:56:06;;;;;;;174.10;77.73;;;-1.50;99.90;;;;;;10469804;28;20032;-77
2022/11/21 05:01:07;;;;;;;198.57;87.40;;;-1.70;99.90;;;;;;10456781;28;20037;-77
2022/11/21 05:06:08;;;;;;;171.20;76.37;;;-1.80;99.90;;;;;;10447305;28;20395;-77
2022/11/21 05:16:27;;;;;;;164.13;77.17;;;-1.90;99.90;;;;;;10444588;28;20040;-78
2022/11/21 05:21:28;;;;;;;157.93;66.87;;;-2.00;99.90;;;;;;10449361;28;20029;-78
2022/11/21 05:26:29;;;;;;;132.43;59.20;;;-2.00;99.90;;;;;;10469229;28;20033;-78
2022/11/21 05:31:29;;;;;;;152.67;63.83;;;-2.00;99.90;;;;;;10472046;28;20033;-78
2022/11/21 05:36:30;;;;;;;158.60;67.20;;;-2.10;99.90;;;;;;10466299;28;20036;-77
2022/11/21 05:41:30;;;;;;;139.73;60.37;;;-2.10;99.90;;;;;;10487730;28;20032;-77
2022/11/21 05:46:31;;;;;;;155.53;66.20;;;-2.10;99.90;;;;;;10487640;28;20053;-78
2022/11/21 05:51:31;;;;;;;143.97;64.57;;;-2.10;99.90;;;;;;10488626;28;20040;-77
2022/11/21 05:56:32;;;;;;;196.63;82.43;;;-2.10;99.90;;;;;;10488301;28;20028;-77
2022/11/21 06:06:52;;;;;;;194.20;77.90;;;-2.10;99.90;;;;;;10487237;28;20056;-78
2022/11/21 06:11:52;;;;;;;164.10;68.07;;;-2.20;99.90;;;;;;10486228;28;20028;-78
2022/11/21 06:16:53;;;;;;;142.63;62.50;;;-2.20;99.90;;;;;;10474959;28;20032;-78
2022/11/21 06:21:53;;;;;;;151.23;62.40;;;-2.20;99.90;;;;;;10486925;28;20111;-78
2022/11/21 06:26:54;;;;;;;172.37;71.90;;;-2.20;99.90;;;;;;10468920;28;20035;-77
2022/11/21 06:31:54;;;;;;;187.83;75.20;;;-2.20;99.90;;;;;;10486129;28;20066;-77
2022/11/21 06:36:55;;;;;;;142.20;62.00;;;-2.20;99.90;;;;;;10486188;28;20074;-77
2022/11/21 06:41:55;;;;;;;232.20;93.53;;;-2.20;99.90;;;;;;10486538;28;20035;-77
2022/11/21 06:46:56;;;;;;;313.90;127.27;;;-2.00;99.90;;;;;;10485687;28;20528;-78
2022/11/21 06:51:56;;;;;;;265.97;105.73;;;-1.90;99.90;;;;;;10486627;28;20044;-78
2022/11/21 06:56:58;;;;;;;211.03;84.47;;;-1.80;99.90;;;;;;10484890;28;20075;-78
2022/11/21 07:01:59;;;;;;;227.60;93.77;;;-1.70;99.90;;;;;;10485234;28;20035;-78
2022/11/21 07:06:59;;;;;;;240.93;104.53;;;-1.60;99.90;;;;;;10484764;28;20025;-78
2022/11/21 07:17:19;;;;;;;307.63;134.43;;;-1.30;99.90;;;;;;10476253;28;20496;-78
2022/11/21 07:22:20;;;;;;;260.37;116.07;;;-1.20;99.90;;;;;;10485638;28;20032;-78
2022/11/21 07:27:20;;;;;;;209.17;93.90;;;-1.00;99.90;;;;;;10481772;28;20505;-78
2022/11/21 07:32:21;;;;;;;181.53;77.53;;;-0.80;99.90;;;;;;10473111;28;20047;-78
2022/11/21 07:37:22;;;;;;;139.23;67.73;;;-0.60;99.90;;;;;;10484300;28;20495;-79
2022/11/21 07:42:22;;;;;;;152.50;66.07;;;-0.30;99.90;;;;;;10483650;28;20044;-78
2022/11/21 07:47:23;;;;;;;131.10;62.77;;;-0.10;99.90;;;;;;10484267;28;20531;-78
2022/11/21 07:52:24;;;;;;;147.17;70.50;;;0.10;99.90;;;;;;10483848;28;20460;-79
2022/11/21 07:57:25;;;;;;;140.50;62.10;;;0.30;99.90;;;;;;10483732;28;20039;-76
2022/11/21 08:02:27;;;;;;;158.10;84.13;;;0.60;99.90;;;;;;10483934;28;20384;-79
2022/11/21 08:07:28;;;;;;;292.67;141.83;;;0.80;99.90;;;;;;10483908;28;20048;-78
2022/11/21 08:12:30;;;;;;;258.90;131.83;;;0.90;99.90;;;;;;10484647;28;20487;-79
2022/11/21 08:17:31;;;;;;;187.63;93.50;;;1.00;99.90;;;;;;10484747;28;20435;-78
2022/11/21 08:22:36;;;;;;;222.17;105.03;;;1.10;99.90;;;;;;10491171;28;20040;-79
2022/11/21 08:27:37;;;;;;;261.90;128.20;;;1.30;99.90;;;;;;10491322;28;20531;-79
2022/11/21 08:32:38;;;;;;;148.40;68.83;;;1.40;99.90;;;;;;10492503;28;20036;-78
2022/11/21 08:37:39;;;;;;;160.63;77.43;;;1.50;99.90;;;;;;10491044;28;20025;-78
2022/11/21 08:42:39;;;;;;;177.47;82.83;;;1.50;99.90;;;;;;10491570;28;20039;-78
2022/11/21 08:47:40;;;;;;;193.40;97.43;;;1.50;99.90;;;;;;10490684;28;20072;-78
2022/11/21 08:52:40;;;;;;;157.17;75.10;;;1.50;99.90;;;;;;10490026;28;20055;-78
2022/11/21 08:57:41;;;;;;;152.73;68.17;;;1.50;99.90;;;;;;10489828;28;20024;-78
2022/11/21 09:02:42;;;;;;;160.83;80.87;;;1.60;99.90;;;;;;10490351;28;20043;-77
2022/11/21 09:07:42;;;;;;;135.43;59.73;;;1.80;99.90;;;;;;10489326;28;20044;-80
2022/11/21 09:12:43;;;;;;;122.43;58.63;;;1.90;99.90;;;;;;10490235;28;20032;-78
2022/11/21 09:18:01;;;;;;;227.47;114.23;;;2.10;99.90;;;;;;10490304;28;20032;-77
2022/11/21 09:23:07;;;;;;;187.43;96.23;;;2.10;99.90;;;;;;10488972;28;20482;-78
2022/11/21 09:28:09;;;;;;;141.30;68.93;;;2.10;99.90;;;;;;10490286;28;20075;-77
2022/11/21 09:33:12;;;;;;;154.03;80.07;;;2.20;99.90;;;;;;10489051;28;20070;-77
2022/11/21 09:38:12;;;;;;;145.57;72.47;;;2.20;99.90;;;;;;10489649;28;20025;-78
2022/11/21 09:43:50;;;;;;;172.87;91.70;;;2.20;99.90;;;;;;10488551;28;20039;-78
2022/11/21 09:48:58;;;;;;;194.57;93.33;;;2.30;99.90;;;;;;10489512;28;20083;-77
2022/11/21 09:54:02;;;;;;;240.43;102.93;;;2.50;99.90;;;;;;10488386;28;20099;-78
2022/11/21 09:59:10;;;;;;;316.67;147.30;;;2.60;99.90;;;;;;10488953;28;20037;-77
2022/11/21 10:04:10;;;;;;;155.67;78.73;;;2.60;99.90;;;;;;10488414;28;20377;-78
2022/11/21 10:09:30;;;;;;;168.50;85.37;;;2.80;99.90;;;;;;10488774;28;20040;-77
2022/11/21 10:14:49;;;;;;;165.23;87.90;;;3.20;99.90;;;;;;10488267;28;20417;-78
2022/11/21 10:20:09;;;;;;;132.97;66.93;;;3.50;99.90;;;;;;10487717;28;20053;-78
2022/11/21 10:25:19;;;;;;;129.27;66.70;;;3.90;99.90;;;;;;10488613;28;20043;-78
2022/11/21 10:30:21;;;;;;;123.43;60.87;;;4.10;99.90;;;;;;10487623;28;20040;-78
2022/11/21 10:35:43;;;;;;;109.53;58.33;;;4.20;99.90;;;;;;10456368;28;20061;-78
2022/11/21 10:40:51;;;;;;;118.07;62.53;;;4.30;99.90;;;;;;10447287;28;20063;-78
2022/11/21 10:45:53;;;;;;;111.77;57.97;;;4.50;99.90;;;;;;10472720;28;20049;-78
2022/11/21 10:51:10;;;;;;;104.97;55.60;;;4.60;99.90;;;;;;10483101;28;20048;-78
2022/11/21 10:56:14;;;;;;;131.33;63.70;;;4.70;99.90;;;;;;10477386;28;20031;-78
2022/11/21 11:01:18;;;;;;;112.33;55.57;;;4.70;99.90;;;;;;10485856;28;20034;-80
2022/11/21 11:06:28;;;;;;;121.10;61.03;;;4.80;99.90;;;;;;10485691;28;20066;-77
2022/11/21 11:11:28;;;;;;;108.73;54.30;;;4.90;99.90;;;;;;10471439;28;20606;-78
2022/11/21 11:16:31;;;;;;;96.97;54.87;;;5.00;99.90;;;;;;10485407;28;20085;-77
2022/11/21 11:21:38;;;;;;;101.00;51.13;;;4.90;99.90;;;;;;10485718;28;20062;-80
2022/11/21 11:26:47;;;;;;;97.80;52.00;;;4.90;99.90;;;;;;10484988;28;20081;-79
2022/11/21 11:32:25;;;;;;;96.50;53.93;;;4.90;99.90;;;;;;10484829;28;20120;-78
2022/11/21 11:37:37;;;;;;;102.70;52.80;;;4.90;99.90;;;;;;10484793;28;20024;-80
2022/11/21 11:48:23;;;;;;;96.07;50.90;;;5.10;99.90;;;;;;10455014;28;20404;-78
2022/11/21 11:53:44;;;;;;;97.13;45.13;;;5.20;99.90;;;;;;10484351;28;20017;-78
2022/11/21 11:58:56;;;;;;;90.73;45.87;;;5.40;99.90;;;;;;10484264;28;20115;-77
2022/11/21 12:04:05;;;;;;;99.90;54.17;;;5.40;99.90;;;;;;10484423;28;20092;-80
2022/11/21 12:09:13;;;;;;;109.73;61.17;;;5.50;99.90;;;;;;10483798;28;20037;-78
2022/11/21 12:20:04;;;;;;;87.97;41.47;;;5.60;99.90;;;;;;10484049;28;20484;-78
2022/11/21 12:25:12;;;;;;;205.63;125.47;;;5.60;99.90;;;;;;10484245;28;20020;-78
2022/11/21 12:30:47;;;;;;;143.03;79.77;;;5.60;99.90;;;;;;10482961;28;20043;-78
2022/11/21 12:36:09;;;;;;;172.77;91.20;;;5.60;99.90;;;;;;10466083;28;20103;-78
2022/11/21 12:46:51;;;;;;;106.60;54.03;;;5.70;99.90;;;;;;10457217;28;20142;-80
2022/11/21 12:57:50;;;;;;;112.73;49.30;;;5.70;99.90;;;;;;10487863;28;20755;-77
2022/11/21 13:03:36;;;;;;;46.13;24.83;;;5.80;99.90;;;;;;10490165;28;20043;-77
2022/11/21 13:08:38;;;;;;;34.35;16.50;;;5.50;99.90;;;;;;10489839;28;20119;-78
2022/11/21 13:13:41;;;;;;;39.27;19.13;;;5.30;99.90;;;;;;10490656;28;20028;-77
2022/11/21 13:18:45;;;;;;;32.80;16.73;;;5.30;99.90;;;;;;10489845;28;20055;-80
2022/11/21 13:23:46;;;;;;;32.57;16.07;;;5.10;99.90;;;;;;10490112;28;20036;-76
2022/11/21 13:28:47;;;;;;;54.20;29.93;;;5.20;99.90;;;;;;10488884;28;20051;-77
2022/11/21 13:33:49;;;;;;;63.00;31.27;;;5.20;99.90;;;;;;10488742;28;20029;-78
2022/11/21 13:38:50;;;;;;;70.20;28.23;;;5.30;99.90;;;;;;10488344;28;20029;-80
2022/11/21 13:44:11;;;;;;;71.93;29.23;;;5.30;99.90;;;;;;10474419;28;20056;-77
2022/11/21 13:49:20;;;;;;;44.57;21.20;;;5.30;99.90;;;;;;10487422;28;20124;-78
2022/11/21 13:54:38;;;;;;;50.47;19.73;;;5.30;99.90;;;;;;10487881;28;20230;-80
2022/11/21 13:59:55;;;;;;;77.93;32.80;;;5.30;99.90;;;;;;10488171;28;20081;-78
2022/11/21 14:05:29;;;;;;;109.03;43.93;;;5.30;99.90;;;;;;10482029;28;20113;-80
2022/11/21 14:10:32;;;;;;;132.23;42.93;;;5.30;99.90;;;;;;10459258;28;20092;-78
2022/11/21 14:16:02;;;;;;;92.53;33.33;;;5.30;99.90;;;;;;10474916;28;20392;-78
2022/11/21 14:21:03;;;;;;;79.33;27.47;;;5.30;99.90;;;;;;10437053;28;20037;-78
2022/11/21 14:26:16;;;;;;;95.37;36.67;;;5.30;99.90;;;;;;10456657;28;20025;-77
2022/11/21 14:31:17;;;;;;;45.47;19.77;;;5.20;99.90;;;;;;10461647;28;20051;-78
2022/11/21 14:36:19;;;;;;;86.27;30.77;;;5.20;99.90;;;;;;10473919;28;20072;-77
2022/11/21 14:41:25;;;;;;;42.63;18.67;;;5.20;99.90;;;;;;10485717;28;20066;-79
2022/11/21 14:46:28;;;;;;;37.10;18.27;;;5.20;99.90;;;;;;10471063;28;20052;-77
2022/11/21 14:51:29;;;;;;;55.47;25.37;;;5.10;99.90;;;;;;10485201;28;20544;-79
2022/11/21 14:56:32;;;;;;;53.73;23.47;;;5.10;99.90;;;;;;10444788;28;20128;-78
2022/11/21 15:01:33;;;;;;;49.07;21.27;;;5.10;99.90;;;;;;10460190;28;20043;-78
2022/11/21 15:06:42;;;;;;;45.00;22.90;;;5.00;99.90;;;;;;10484585;28;20487;-77
2022/11/21 15:11:54;;;;;;;45.33;23.80;;;5.00;99.90;;;;;;10469201;28;20129;-77
2022/11/21 15:16:56;;;;;;;46.30;23.83;;;5.00;99.90;;;;;;10470596;28;20028;-81
2022/11/21 15:22:00;;;;;;;52.97;26.30;;;5.00;99.90;;;;;;10474357;28;20044;-78
2022/11/21 15:27:20;;;;;;;53.97;29.57;;;4.90;99.90;;;;;;10479967;28;20137;-80
2022/11/21 15:32:21;;;;;;;55.63;28.30;;;4.90;99.90;;;;;;10484014;28;20074;-79
2022/11/21 15:37:24;;;;;;;59.53;30.17;;;4.80;99.90;;;;;;10455542;28;20033;-78
2022/11/21 15:42:30;;;;;;;62.10;30.23;;;4.80;99.90;;;;;;10477369;28;20028;-78
2022/11/21 15:47:30;;;;;;;57.70;28.70;;;4.80;99.90;;;;;;10460036;28;20095;-79
2022/11/21 15:52:42;;;;;;;68.03;31.83;;;4.70;99.90;;;;;;10461744;28;20025;-81
2022/11/21 15:57:42;;;;;;;80.10;36.03;;;4.60;99.90;;;;;;10478816;28;20108;-82
2022/11/21 16:02:43;;;;;;;75.80;37.33;;;4.60;99.90;;;;;;10465393;28;20605;-80
2022/11/21 16:07:43;;;;;;;97.97;46.07;;;4.50;99.90;;;;;;10483715;28;20036;-79
2022/11/21 16:12:44;;;;;;;125.47;55.53;;;4.50;99.90;;;;;;10479859;28;20112;-78
2022/11/21 16:17:45;;;;;;;116.87;55.60;;;4.40;99.90;;;;;;10466585;28;20036;-78
2022/11/21 16:22:46;;;;;;;132.23;57.30;;;4.40;99.90;;;;;;10483409;28;20644;-78
2022/11/21 16:27:46;;;;;;;138.30;63.23;;;4.40;99.90;;;;;;10459390;28;20040;-78
2022/11/21 16:32:47;;;;;;;188.27;89.17;;;4.40;99.90;;;;;;10463512;28;20032;-78
2022/11/21 16:37:48;;;;;;;157.07;76.60;;;4.40;99.90;;;;;;10460766;28;20029;-80
2022/11/21 16:42:48;;;;;;;144.10;67.00;;;4.40;99.90;;;;;;10456626;28;20033;-79
2022/11/21 16:47:49;;;;;;;161.07;80.47;;;4.30;99.90;;;;;;10475055;28;20057;-79
2022/11/21 16:52:49;;;;;;;137.47;63.10;;;4.30;99.90;;;;;;10481077;28;20483;-79
2022/11/21 16:57:50;;;;;;;156.00;72.47;;;4.30;99.90;;;;;;10470474;28;20074;-80
2022/11/21 17:02:52;;;;;;;184.00;90.20;;;4.30;99.90;;;;;;10490157;28;20028;-78
2022/11/21 17:07:52;;;;;;;178.40;85.83;;;4.20;99.90;;;;;;10478658;28;20123;-78
2022/11/21 17:12:53;;;;;;;170.07;79.80;;;4.10;99.90;;;;;;10471687;28;20063;-79
2022/11/21 17:17:54;;;;;;;147.80;73.73;;;4.20;99.90;;;;;;10485010;28;20036;-78
2022/11/21 17:22:55;;;;;;;202.47;103.90;;;4.20;99.90;;;;;;10471009;28;20040;-80
2022/11/21 17:27:55;;;;;;;209.10;110.27;;;4.20;99.90;;;;;;10472606;28;20515;-79
2022/11/21 17:32:56;;;;;;;251.47;125.47;;;4.20;99.90;;;;;;10478389;28;20033;-79
2022/11/21 17:37:56;;;;;;;256.77;131.43;;;4.20;99.90;;;;;;10477930;28;20028;-78
2022/11/21 17:42:57;;;;;;;224.30;111.73;;;4.20;99.90;;;;;;10445834;28;20461;-79
2022/11/21 17:47:57;;;;;;;274.27;135.37;;;4.20;99.90;;;;;;10451507;28;20071;-79
2022/11/21 17:52:58;;;;;;;302.97;156.10;;;4.20;99.90;;;;;;10467796;28;20678;-79
2022/11/21 17:57:58;;;;;;;330.70;158.83;;;4.20;99.90;;;;;;10446113;28;20033;-81
2022/11/21 18:02:59;;;;;;;392.13;178.73;;;4.20;99.90;;;;;;10472502;28;20035;-81
2022/11/21 18:07:59;;;;;;;367.80;173.67;;;4.30;99.90;;;;;;10460928;28;20040;-79
2022/11/21 18:13:00;;;;;;;221.67;106.57;;;4.30;99.90;;;;;;10472779;28;20487;-79
2022/11/21 18:18:00;;;;;;;203.90;103.63;;;4.30;99.90;;;;;;10479313;28;20043;-81
2022/11/21 18:23:01;;;;;;;252.13;122.33;;;4.30;99.90;;;;;;10483411;28;20028;-81
2022/11/21 18:28:02;;;;;;;237.67;118.73;;;4.30;99.90;;;;;;10457861;28;20037;-81
2022/11/21 18:33:03;;;;;;;220.07;109.00;;;4.30;99.90;;;;;;10462625;28;20029;-77
2022/11/21 18:38:04;;;;;;;320.80;164.93;;;4.30;99.90;;;;;;10463973;28;20476;-79
2022/11/21 18:43:04;;;;;;;677.53;369.63;;;4.30;99.90;;;;;;10467301;28;20036;-79
2022/11/21 18:48:05;;;;;;;369.10;189.80;;;4.30;99.90;;;;;;10459107;28;20710;-78
2022/11/21 18:53:05;;;;;;;199.40;97.47;;;4.30;99.90;;;;;;10468980;28;20032;-78
2022/11/21 18:58:06;;;;;;;164.80;83.73;;;4.40;99.90;;;;;;10466050;28;20022;-80
2022/11/21 19:03:06;;;;;;;227.53;116.30;;;4.40;99.90;;;;;;10470781;28;20032;-79
2022/11/21 19:08:07;;;;;;;228.20;119.40;;;4.40;99.90;;;;;;10472036;28;20579;-78
2022/11/21 19:13:08;;;;;;;249.87;126.70;;;4.30;99.90;;;;;;10477141;28;20039;-77
2022/11/21 19:18:09;;;;;;;263.37;138.27;;;4.30;99.90;;;;;;10478060;28;20024;-77
2022/11/21 19:23:10;;;;;;;245.93;123.07;;;4.30;99.90;;;;;;10448326;28;20111;-78
2022/11/21 19:28:10;;;;;;;276.50;143.23;;;4.30;99.90;;;;;;10449254;28;20062;-78
2022/11/21 19:33:12;;;;;;;269.90;147.43;;;4.30;99.90;;;;;;10451686;28;20535;-79
2022/11/21 19:38:13;;;;;;;242.73;123.07;;;4.30;99.90;;;;;;10458001;28;20029;-79
2022/11/21 19:43:14;;;;;;;217.40;103.67;;;4.30;99.90;;;;;;10440420;28;20040;-78
2022/11/21 19:48:15;;;;;;;209.20;105.83;;;4.20;99.90;;;;;;10447535;28;20045;-77
2022/11/21 19:53:15;;;;;;;182.50;92.60;;;4.20;99.90;;;;;;10459211;28;20403;-77
2022/11/21 19:58:16;;;;;;;148.77;71.10;;;4.20;99.90;;;;;;10438964;28;20032;-78
2022/11/21 20:03:17;;;;;;;120.40;58.20;;;4.20;99.90;;;;;;10465203;28;20675;-79
2022/11/21 20:08:17;;;;;;;112.97;50.50;;;4.10;99.90;;;;;;10438644;28;20113;-77
2022/11/21 20:13:18;;;;;;;120.33;54.83;;;4.10;99.90;;;;;;10469705;28;20617;-78
2022/11/21 20:18:18;;;;;;;127.37;57.80;;;4.10;99.90;;;;;;10476745;28;20025;-76
2022/11/21 20:23:19;;;;;;;117.77;56.47;;;4.10;99.90;;;;;;10450217;28;20184;-79
2022/11/21 20:28:19;;;;;;;128.10;65.20;;;4.00;99.90;;;;;;10465227;28;20053;-79
2022/11/21 20:33:20;;;;;;;176.50;85.17;;;4.10;99.90;;;;;;10474127;28;20800;-77
2022/11/21 20:38:20;;;;;;;175.83;82.73;;;4.00;99.90;;;;;;10456369;28;20186;-77
2022/11/21 20:43:21;;;;;;;132.13;61.90;;;4.00;99.90;;;;;;10465330;28;20045;-77
2022/11/21 20:48:22;;;;;;;238.83;113.90;;;4.00;99.90;;;;;;10457378;28;20044;-76
2022/11/21 20:53:23;;;;;;;200.20;93.40;;;4.00;99.90;;;;;;10464089;28;20112;-78
2022/11/21 20:58:26;;;;;;;184.03;85.57;;;3.90;99.90;;;;;;10478040;28;20035;-77
2022/11/21 21:03:29;;;;;;;180.80;81.30;;;3.90;99.90;;;;;;10469103;28;20021;-78
2022/11/21 21:08:30;;;;;;;174.03;84.40;;;3.80;99.90;;;;;;10467319;28;20027;-77
2022/11/21 21:13:32;;;;;;;183.00;87.03;;;3.80;99.90;;;;;;10460027;28;20363;-77
2022/11/21 21:18:34;;;;;;;180.93;84.43;;;3.80;99.90;;;;;;10477256;28;20046;-79
2022/11/21 21:23:37;;;;;;;182.43;82.30;;;3.70;99.90;;;;;;10483778;28;20036;-78
2022/11/21 21:28:39;;;;;;;215.90;103.23;;;3.60;99.90;;;;;;10473421;28;20050;-77
2022/11/21 21:33:40;;;;;;;177.83;82.77;;;3.60;99.90;;;;;;10467671;28;20036;-76
2022/11/21 21:38:41;;;;;;;177.80;83.27;;;3.50;99.90;;;;;;10477629;28;20048;-79
2022/11/21 21:43:42;;;;;;;195.53;89.30;;;3.50;99.90;;;;;;10472137;28;20057;-77
2022/11/21 21:48:43;;;;;;;215.20;95.93;;;3.40;99.90;;;;;;10473675;28;20044;-78
2022/11/21 21:53:46;;;;;;;207.73;96.27;;;3.20;99.90;;;;;;10463231;28;20029;-77
2022/11/21 21:58:49;;;;;;;190.20;88.17;;;3.10;99.90;;;;;;10469078;28;20040;-77
2022/11/21 22:03:55;;;;;;;188.30;84.80;;;3.00;99.90;;;;;;10470519;28;20062;-77
2022/11/21 22:08:55;;;;;;;;;;;2.90;99.90;;;;;;10482470;28;20113;-77
2022/11/21 22:13:59;;;;;;;179.23;73.33;;;2.90;99.90;;;;;;10473264;28;19916;-79
2022/11/21 22:18:59;;;;;;;218.37;81.90;;;2.80;99.90;;;;;;10453814;28;20036;-77
2022/11/21 22:24:10;;;;;;;198.47;78.33;;;2.70;99.90;;;;;;10476505;28;20369;-77
2022/11/21 22:29:10;;;;;;;264.83;88.43;;;2.80;99.90;;;;;;10469192;28;20040;-77
2022/11/21 22:34:14;;;;;;;304.70;90.67;;;2.70;99.90;;;;;;10476844;28;20427;-78
2022/11/21 22:39:15;;;;;;;268.60;88.07;;;2.80;99.90;;;;;;10472268;28;20064;-77
2022/11/21 22:44:16;;;;;;;319.00;93.93;;;2.80;99.90;;;;;;10458123;28;20135;-77
2022/11/21 22:49:16;;;;;;;425.90;103.20;;;2.80;99.90;;;;;;10468904;28;20052;-78
2022/11/21 22:54:17;;;;;;;443.60;111.27;;;2.70;99.90;;;;;;10482805;28;20089;-78
2022/11/21 22:59:17;;;;;;;524.97;113.77;;;2.70;99.90;;;;;;10466333;28;20039;-77
2022/11/21 23:04:18;;;;;;;372.13;89.23;;;2.60;99.90;;;;;;10481877;28;20025;-77
2022/11/21 23:09:18;;;;;;;280.73;66.30;;;2.60;99.90;;;;;;10464860;28;20093;-78
2022/11/21 23:14:19;;;;;;;377.67;78.63;;;2.60;99.90;;;;;;10457133;28;20040;-77
2022/11/21 23:19:19;;;;;;;474.77;91.90;;;2.40;99.90;;;;;;10476410;28;20039;-77
2022/11/21 23:24:20;;;;;;;499.53;91.27;;;2.20;99.90;;;;;;10477945;28;20058;-77
2022/11/21 23:29:20;;;;;;;371.40;86.27;;;2.10;99.90;;;;;;10465477;28;20047;-77
2022/11/21 23:34:21;;;;;;;501.53;114.97;;;2.10;99.90;;;;;;10452072;28;20040;-77
2022/11/21 23:39:21;;;;;;;360.23;86.33;;;2.20;99.90;;;;;;10475913;28;20046;-77
2022/11/21 23:44:22;;;;;;;354.27;84.00;;;2.30;99.90;;;;;;10469468;28;20057;-77
2022/11/21 23:49:22;;;;;;;357.33;89.57;;;2.40;99.90;;;;;;10469153;28;20048;-78
2022/11/21 23:54:23;;;;;;;458.07;85.23;;;2.50;99.90;;;;;;10472538;28;20036;-79
2022/11/21 23:59:23;;;;;;;344.10;96.47;;;2.50;99.90;;;;;;10457140;28;20468;-80
